Time;durP1;ratioP1;P1;durP2;ratioP2;P2;SDS_P1;SDS_P2;PMS_P1;PMS_P2;Temp;Humidity;BMP_temperature;BMP_pressure;BME280_temperature;BME280_humidity;BME280_pressure;Samples;Min_cycle;Max_cycle;Signal;HPM_P1;HPM_P2
2023/02/18 00:01:01;;;;;;;0.10;0.10;;;12.50;99.90;;;;;;5026007;28;20209;-80
2023/02/18 00:03:28;;;;;;;0.10;0.10;;;12.50;99.90;;;;;;5025391;28;20222;-80
2023/02/18 00:05:55;;;;;;;0.10;0.10;;;12.50;99.90;;;;;;5027940;28;20206;-80
2023/02/18 00:08:21;;;;;;;0.10;0.10;;;12.50;99.90;;;;;;5026551;28;20181;-79
2023/02/18 00:10:47;;;;;;;0.10;0.10;;;12.40;99.90;;;;;;5025907;28;20241;-80
2023/02/18 00:13:13;;;;;;;0.10;0.10;;;12.50;99.90;;;;;;5025732;28;20233;-80
2023/02/18 00:15:39;;;;;;;0.10;0.10;;;12.40;99.90;;;;;;5026972;28;20648;-80
2023/02/18 00:18:05;;;;;;;0.10;0.10;;;12.40;99.90;;;;;;5026142;28;20202;-80
2023/02/18 00:20:35;;;;;;;0.10;0.10;;;12.40;99.90;;;;;;5026406;28;20211;-80
2023/02/18 00:23:01;;;;;;;0.10;0.10;;;12.40;99.90;;;;;;5025626;28;20206;-80
2023/02/18 00:25:27;;;;;;;0.10;0.10;;;12.40;99.90;;;;;;5026515;28;20571;-80
2023/02/18 00:27:52;;;;;;;0.10;0.10;;;12.40;99.90;;;;;;5027281;28;20186;-80
2023/02/18 00:30:18;;;;;;;0.10;0.10;;;12.40;99.90;;;;;;5025293;28;20198;-80
2023/02/18 00:32:43;;;;;;;0.10;0.10;;;12.30;99.90;;;;;;5025509;28;20233;-80
2023/02/18 00:35:09;;;;;;;0.10;0.10;;;12.30;99.90;;;;;;5025729;28;20193;-80
2023/02/18 00:37:35;;;;;;;0.10;0.10;;;12.30;99.90;;;;;;5024427;28;20187;-81
2023/02/18 00:40:00;;;;;;;0.10;0.10;;;12.30;99.90;;;;;;5025320;28;20183;-80
2023/02/18 00:42:26;;;;;;;0.10;0.10;;;12.30;99.90;;;;;;5025988;28;20213;-80
2023/02/18 00:44:51;;;;;;;0.10;0.10;;;12.30;99.90;;;;;;5025733;28;20187;-79
2023/02/18 00:47:17;;;;;;;0.10;0.10;;;12.30;99.90;;;;;;5025374;28;20683;-80
2023/02/18 00:49:42;;;;;;;0.10;0.10;;;12.30;99.90;;;;;;5023304;28;20195;-80
2023/02/18 00:52:08;;;;;;;6.90;6.50;;;12.20;99.90;;;;;;5024608;28;20633;-80
2023/02/18 00:54:33;;;;;;;0.10;0.10;;;12.20;99.90;;;;;;5023962;28;20186;-80
2023/02/18 00:56:59;;;;;;;0.10;0.10;;;12.20;99.90;;;;;;5026218;28;20187;-80
2023/02/18 00:59:24;;;;;;;0.00;0.00;;;12.20;99.90;;;;;;5024836;28;20240;-80
2023/02/18 01:01:50;;;;;;;0.10;0.10;;;12.10;99.90;;;;;;5024732;28;20190;-79
2023/02/18 01:04:16;;;;;;;0.10;0.10;;;12.10;99.90;;;;;;5022181;28;20276;-80
2023/02/18 01:06:41;;;;;;;0.10;0.10;;;12.10;99.90;;;;;;5024479;28;20256;-79
2023/02/18 01:09:07;;;;;;;0.10;0.10;;;12.00;99.90;;;;;;5020088;28;20190;-80
2023/02/18 01:11:33;;;;;;;0.10;0.10;;;12.00;99.90;;;;;;5024853;28;20214;-80
2023/02/18 01:13:58;;;;;;;0.10;0.10;;;11.90;99.90;;;;;;5023020;28;20244;-80
2023/02/18 01:16:24;;;;;;;0.10;0.10;;;11.90;99.90;;;;;;5024782;28;20687;-80
2023/02/18 01:18:49;;;;;;;0.10;0.10;;;11.80;99.90;;;;;;5022324;28;20238;-80
2023/02/18 01:21:15;;;;;;;0.10;0.10;;;11.90;99.90;;;;;;5024367;28;20198;-80
2023/02/18 01:23:41;;;;;;;0.10;0.10;;;11.90;99.90;;;;;;5024053;28;20202;-80
2023/02/18 01:26:08;;;;;;;0.10;0.10;;;12.00;99.90;;;;;;5025375;28;20178;-79
2023/02/18 01:28:35;;;;;;;0.10;0.10;;;12.00;99.90;;;;;;5025494;28;21131;-80
2023/02/18 01:31:06;;;;;;;0.10;0.10;;;11.90;99.90;;;;;;5023752;28;20194;-80
2023/02/18 01:33:32;;;;;;;0.10;0.10;;;11.90;99.90;;;;;;5023782;28;20743;-80
2023/02/18 01:35:57;;;;;;;0.10;0.10;;;11.90;99.90;;;;;;5023210;28;20277;-79
2023/02/18 01:38:23;;;;;;;0.10;0.10;;;11.90;99.90;;;;;;5024451;28;20236;-80
2023/02/18 01:40:51;;;;;;;0.07;0.07;;;11.90;99.90;;;;;;5025877;28;20191;-79
2023/02/18 01:43:18;;;;;;;0.10;0.10;;;11.90;99.90;;;;;;5025037;28;20207;-80
2023/02/18 01:45:53;;;;;;;0.10;0.10;;;11.90;99.90;;;;;;5025133;28;20206;-79
2023/02/18 01:48:42;;;;;;;0.10;0.10;;;11.90;99.90;;;;;;5023707;28;20591;-80
2023/02/18 01:51:16;;;;;;;0.10;0.10;;;11.80;99.90;;;;;;5015291;28;20294;-80
2023/02/18 01:53:48;;;;;;;0.10;0.10;;;11.80;99.90;;;;;;5025487;28;20207;-80
2023/02/18 01:56:29;;;;;;;0.10;0.10;;;11.80;99.90;;;;;;5023208;28;20210;-79
2023/02/18 01:58:59;;;;;;;0.00;0.00;;;11.80;99.90;;;;;;5023718;28;20636;-79
2023/02/18 02:01:26;;;;;;;0.10;0.10;;;11.70;99.90;;;;;;5022788;28;20627;-80
2023/02/18 02:03:51;;;;;;;0.10;0.10;;;11.70;99.90;;;;;;5023635;28;20222;-80
2023/02/18 02:06:19;;;;;;;0.10;0.10;;;11.60;99.90;;;;;;5023370;28;20592;-79
2023/02/18 02:08:47;;;;;;;0.10;0.10;;;11.60;99.90;;;;;;5024191;28;20214;-79
2023/02/18 02:11:33;;;;;;;0.10;0.10;;;11.60;99.90;;;;;;5024639;28;20217;-79
2023/02/18 02:13:59;;;;;;;0.10;0.10;;;11.60;99.90;;;;;;5024611;28;20205;-80
2023/02/18 02:16:37;;;;;;;0.10;0.10;;;11.60;99.90;;;;;;5020914;28;20453;-80
2023/02/18 02:19:27;;;;;;;0.10;0.10;;;11.60;99.90;;;;;;5024396;28;20177;-81
2023/02/18 02:22:43;;;;;;;0.10;0.10;;;11.60;99.90;;;;;;5023744;28;20839;-80
2023/02/18 02:25:27;;;;;;;0.10;0.10;;;11.60;99.90;;;;;;5024518;28;20237;-80
2023/02/18 02:28:27;;;;;;;0.00;0.00;;;11.60;99.90;;;;;;5023503;28;20189;-79
2023/02/18 02:31:00;;;;;;;0.10;0.10;;;11.60;99.90;;;;;;5023616;28;20244;-80
2023/02/18 02:33:57;;;;;;;0.10;0.10;;;11.70;99.90;;;;;;5023157;28;20639;-79
2023/02/18 02:36:39;;;;;;;0.00;0.00;;;11.70;99.90;;;;;;5024004;28;20171;-80
2023/02/18 02:39:31;;;;;;;0.10;0.10;;;11.70;99.90;;;;;;5024522;28;20193;-80
2023/02/18 02:42:19;;;;;;;0.10;0.10;;;11.70;99.90;;;;;;5007881;28;20855;-79
2023/02/18 02:45:14;;;;;;;0.10;0.10;;;11.70;99.90;;;;;;5023403;28;20197;-80
2023/02/18 02:48:12;;;;;;;0.10;0.10;;;11.70;99.90;;;;;;5023150;28;20564;-80
2023/02/18 02:50:44;;;;;;;0.10;0.10;;;11.70;99.90;;;;;;5004453;28;20210;-80
2023/02/18 02:53:19;;;;;;;0.10;0.10;;;11.80;99.90;;;;;;5021119;28;20211;-79
2023/02/18 02:55:45;;;;;;;0.10;0.10;;;11.80;99.90;;;;;;5039423;28;20632;-80
2023/02/18 02:58:15;;;;;;;0.10;0.10;;;11.80;99.90;;;;;;5023487;28;20182;-79
2023/02/18 03:01:10;;;;;;;0.10;0.10;;;11.80;99.90;;;;;;5022143;28;20281;-80
2023/02/18 03:03:38;;;;;;;0.10;0.10;;;11.80;99.90;;;;;;5017230;28;20301;-80
2023/02/18 03:06:19;;;;;;;0.10;0.10;;;11.80;99.90;;;;;;5023221;28;20794;-80
2023/02/18 03:09:01;;;;;;;0.10;0.10;;;11.70;99.90;;;;;;5028395;28;20190;-80
2023/02/18 03:11:29;;;;;;;0.10;0.10;;;11.70;99.90;;;;;;5027009;28;20237;-80
2023/02/18 03:14:21;;;;;;;0.10;0.10;;;11.70;99.90;;;;;;5025969;28;20652;-80
2023/02/18 03:16:57;;;;;;;0.10;0.10;;;11.80;99.90;;;;;;5026356;28;20316;-80
2023/02/18 03:19:34;;;;;;;0.10;0.10;;;11.80;99.90;;;;;;5026067;28;20178;-80
2023/02/18 03:22:27;;;;;;;0.03;0.03;;;11.80;99.90;;;;;;5025383;28;20648;-80
2023/02/18 03:24:55;;;;;;;0.10;0.10;;;11.80;99.90;;;;;;5018173;28;20193;-80
2023/02/18 03:27:53;;;;;;;0.10;0.10;;;11.80;99.90;;;;;;5026537;28;20249;-80
2023/02/18 03:30:25;;;;;;;0.10;0.10;;;11.80;99.90;;;;;;5010574;28;20603;-80
2023/02/18 03:32:56;;;;;;;0.10;0.10;;;11.80;99.90;;;;;;5027737;28;20628;-80
2023/02/18 03:35:23;;;;;;;0.10;0.10;;;11.80;99.90;;;;;;5025096;28;20193;-79
2023/02/18 03:38:01;;;;;;;0.10;0.10;;;11.80;99.90;;;;;;5026735;28;20198;-80
2023/02/18 03:40:29;;;;;;;0.00;0.00;;;11.80;99.90;;;;;;5026536;28;20194;-80
2023/02/18 03:42:59;;;;;;;0.10;0.10;;;11.80;99.90;;;;;;5025657;28;20701;-81
2023/02/18 03:45:26;;;;;;;0.10;0.10;;;11.80;99.90;;;;;;5026356;28;20191;-80
2023/02/18 03:47:52;;;;;;;0.10;0.10;;;11.80;99.90;;;;;;5025971;28;20190;-80
2023/02/18 03:50:18;;;;;;;0.10;0.10;;;11.80;99.90;;;;;;5028060;28;20182;-79
2023/02/18 03:52:43;;;;;;;0.10;0.10;;;11.80;99.90;;;;;;5024539;28;20215;-80
2023/02/18 03:55:09;;;;;;;0.10;0.10;;;11.80;99.90;;;;;;5024357;28;20217;-79
2023/02/18 03:57:34;;;;;;;0.10;0.10;;;11.80;99.90;;;;;;5025632;28;20915;-80
2023/02/18 04:00:00;;;;;;;0.10;0.10;;;11.80;99.90;;;;;;5025472;28;20198;-79
2023/02/18 04:02:26;;;;;;;0.10;0.10;;;11.80;99.90;;;;;;5024557;28;20206;-80
2023/02/18 04:04:51;;;;;;;0.10;0.10;;;11.80;99.90;;;;;;5026159;28;20183;-80
2023/02/18 04:07:17;;;;;;;0.10;0.10;;;11.80;99.90;;;;;;5025303;28;20190;-80
2023/02/18 04:09:43;;;;;;;0.10;0.10;;;11.70;99.90;;;;;;5024908;28;20608;-80
2023/02/18 04:12:08;;;;;;;0.10;0.10;;;11.70;99.90;;;;;;5026203;28;20217;-80
2023/02/18 04:14:34;;;;;;;0.10;0.10;;;11.70;99.90;;;;;;5024364;28;20208;-79
2023/02/18 04:17:00;;;;;;;0.10;0.10;;;11.70;99.90;;;;;;5022441;28;20240;-80
2023/02/18 04:19:25;;;;;;;0.10;0.10;;;11.70;99.90;;;;;;5023454;28;20236;-79
2023/02/18 04:21:51;;;;;;;0.10;0.10;;;11.70;99.90;;;;;;5026651;28;20651;-80
2023/02/18 04:24:17;;;;;;;0.10;0.10;;;11.70;99.90;;;;;;5025042;28;20229;-80
2023/02/18 04:26:42;;;;;;;0.10;0.10;;;11.70;99.90;;;;;;5025099;28;20567;-80
2023/02/18 04:29:08;;;;;;;0.10;0.10;;;11.70;99.90;;;;;;5025003;28;20187;-80
2023/02/18 04:31:33;;;;;;;0.10;0.10;;;11.70;99.90;;;;;;5025369;28;20297;-80
2023/02/18 04:33:59;;;;;;;0.10;0.10;;;11.70;99.90;;;;;;5026963;28;20206;-79
2023/02/18 04:36:24;;;;;;;0.07;0.07;;;11.70;99.90;;;;;;5024702;28;20198;-80
2023/02/18 04:38:50;;;;;;;0.10;0.10;;;11.70;99.90;;;;;;5025126;28;20183;-80
2023/02/18 04:41:15;;;;;;;0.10;0.10;;;11.70;99.90;;;;;;5025139;28;20189;-80
2023/02/18 04:43:41;;;;;;;0.10;0.10;;;11.70;99.90;;;;;;5024527;28;20260;-80
2023/02/18 04:46:06;;;;;;;0.10;0.10;;;11.70;99.90;;;;;;5025102;28;20183;-79
2023/02/18 04:48:33;;;;;;;0.10;0.10;;;11.70;99.90;;;;;;5023463;28;20269;-80
2023/02/18 04:50:59;;;;;;;0.10;0.10;;;11.70;99.90;;;;;;5024858;28;20536;-80
2023/02/18 04:53:25;;;;;;;0.10;0.10;;;11.80;99.90;;;;;;5024958;28;20228;-80
2023/02/18 04:55:52;;;;;;;0.10;0.10;;;11.70;99.90;;;;;;5025486;28;20173;-80
2023/02/18 04:58:18;;;;;;;0.10;0.10;;;11.70;99.90;;;;;;5025487;28;20182;-79
2023/02/18 05:00:44;;;;;;;0.10;0.10;;;11.80;99.90;;;;;;5024359;28;20594;-79
2023/02/18 05:03:09;;;;;;;0.10;0.10;;;11.70;99.90;;;;;;5025453;28;20280;-79
2023/02/18 05:05:36;;;;;;;0.10;0.10;;;11.70;99.90;;;;;;5024821;28;20533;-79
2023/02/18 05:08:02;;;;;;;0.10;0.10;;;11.70;99.90;;;;;;5026414;28;20555;-80
2023/02/18 05:10:28;;;;;;;0.10;0.10;;;11.70;99.90;;;;;;5025501;28;20194;-80
2023/02/18 05:12:53;;;;;;;0.10;0.10;;;11.70;99.90;;;;;;5026420;28;20654;-79
2023/02/18 05:15:19;;;;;;;0.10;0.10;;;11.60;99.90;;;;;;5023396;28;20186;-79
2023/02/18 05:17:44;;;;;;;0.10;0.10;;;11.60;99.90;;;;;;5025778;28;20284;-79
2023/02/18 05:20:10;;;;;;;0.10;0.10;;;11.60;99.90;;;;;;5023258;28;20186;-79
2023/02/18 05:22:37;;;;;;;0.10;0.10;;;11.60;99.90;;;;;;5025456;28;20198;-79
2023/02/18 05:25:03;;;;;;;0.10;0.10;;;11.50;99.90;;;;;;5021467;28;20185;-79
2023/02/18 05:27:29;;;;;;;0.10;0.10;;;11.50;99.90;;;;;;5024295;28;20194;-79
2023/02/18 05:29:54;;;;;;;0.10;0.10;;;11.50;99.90;;;;;;5024171;28;20216;-79
2023/02/18 05:32:20;;;;;;;0.00;0.00;;;11.50;99.90;;;;;;5025898;28;20206;-80
2023/02/18 05:34:45;;;;;;;0.00;0.00;;;11.50;99.90;;;;;;5025651;28;20186;-79
2023/02/18 05:37:12;;;;;;;0.10;0.10;;;11.50;99.90;;;;;;5024348;28;20179;-80
2023/02/18 05:39:38;;;;;;;0.10;0.10;;;11.50;99.90;;;;;;5024019;28;20182;-80
2023/02/18 05:42:03;;;;;;;0.10;0.10;;;11.40;99.90;;;;;;5024479;28;21270;-79
2023/02/18 05:44:29;;;;;;;0.10;0.10;;;11.40;99.90;;;;;;5025465;28;20190;-78
2023/02/18 05:46:55;;;;;;;0.10;0.10;;;11.40;99.90;;;;;;5024195;28;20189;-79
2023/02/18 05:49:21;;;;;;;0.10;0.10;;;11.40;99.90;;;;;;5025372;28;20206;-79
2023/02/18 05:51:46;;;;;;;0.10;0.10;;;11.40;99.90;;;;;;5024152;28;20580;-79
2023/02/18 05:54:12;;;;;;;0.10;0.10;;;11.40;99.90;;;;;;5023961;28;20321;-79
2023/02/18 05:56:37;;;;;;;0.07;0.07;;;11.40;99.90;;;;;;5026014;28;20686;-80
2023/02/18 05:59:03;;;;;;;0.30;0.30;;;11.40;99.90;;;;;;5024156;28;20554;-80
2023/02/18 06:01:29;;;;;;;0.10;0.10;;;11.30;99.90;;;;;;5025671;28;20212;-80
2023/02/18 06:03:54;;;;;;;0.10;0.10;;;11.30;99.90;;;;;;5021252;28;20213;-80
2023/02/18 06:06:20;;;;;;;0.00;0.00;;;11.30;99.90;;;;;;5022296;28;20687;-80
2023/02/18 06:08:45;;;;;;;0.10;0.10;;;11.30;99.90;;;;;;5025549;28;20656;-79
2023/02/18 06:11:11;;;;;;;0.10;0.10;;;11.30;99.90;;;;;;5023801;28;20209;-79
2023/02/18 06:13:36;;;;;;;0.10;0.10;;;11.40;99.90;;;;;;5024248;28;20198;-79
2023/02/18 06:16:02;;;;;;;0.10;0.10;;;11.30;99.90;;;;;;5025444;28;20181;-79
2023/02/18 06:18:27;;;;;;;0.00;0.00;;;11.30;99.90;;;;;;5025197;28;20194;-78
2023/02/18 06:20:53;;;;;;;0.10;0.10;;;11.30;99.90;;;;;;5040205;28;20174;-79
2023/02/18 06:23:18;;;;;;;0.10;0.10;;;11.30;99.90;;;;;;5022103;28;21028;-80
2023/02/18 06:25:46;;;;;;;0.00;0.00;;;11.20;99.90;;;;;;5024217;28;20194;-80
2023/02/18 06:28:12;;;;;;;0.10;0.10;;;11.20;99.90;;;;;;5024446;28;20178;-80
2023/02/18 06:30:37;;;;;;;0.07;0.07;;;11.20;99.90;;;;;;5022922;28;20189;-80
2023/02/18 06:33:03;;;;;;;0.10;0.10;;;11.20;99.90;;;;;;5021837;28;20223;-79
2023/02/18 06:35:29;;;;;;;0.00;0.00;;;11.20;99.90;;;;;;5021917;28;20186;-80
2023/02/18 06:37:55;;;;;;;0.10;0.10;;;11.20;99.90;;;;;;5021579;28;20185;-80
2023/02/18 06:40:20;;;;;;;0.03;0.03;;;11.20;99.90;;;;;;5021823;28;20175;-79
2023/02/18 06:42:46;;;;;;;0.10;0.10;;;11.20;99.90;;;;;;5027329;28;20283;-79
2023/02/18 06:45:12;;;;;;;0.10;0.10;;;11.20;99.90;;;;;;5029613;28;20674;-79
2023/02/18 06:47:37;;;;;;;0.10;0.10;;;11.20;99.90;;;;;;5028015;28;20212;-79
2023/02/18 06:50:04;;;;;;;0.10;0.10;;;11.20;99.90;;;;;;5028396;28;20277;-79
2023/02/18 06:52:32;;;;;;;0.00;0.00;;;11.20;99.90;;;;;;5027927;28;20218;-79
2023/02/18 06:54:57;;;;;;;0.10;0.10;;;11.20;99.90;;;;;;5027789;28;20187;-79
2023/02/18 06:57:23;;;;;;;0.10;0.10;;;11.30;99.90;;;;;;5025999;28;20675;-79
2023/02/18 06:59:48;;;;;;;0.00;0.00;;;11.20;99.90;;;;;;5026988;28;20201;-79
2023/02/18 07:02:14;;;;;;;0.10;0.10;;;11.20;99.90;;;;;;5027617;28;20341;-80
2023/02/18 07:04:40;;;;;;;0.10;0.10;;;11.20;99.90;;;;;;5026705;28;20190;-80
2023/02/18 07:07:05;;;;;;;0.10;0.10;;;11.30;99.90;;;;;;5028123;28;20198;-80
2023/02/18 07:09:31;;;;;;;0.10;0.10;;;11.20;99.90;;;;;;5028260;28;20205;-79
2023/02/18 07:11:57;;;;;;;0.10;0.10;;;11.30;99.90;;;;;;5027860;28;20351;-79
2023/02/18 07:14:23;;;;;;;0.10;0.10;;;11.30;99.90;;;;;;5028851;28;20841;-79
2023/02/18 07:16:49;;;;;;;0.10;0.10;;;11.20;99.90;;;;;;5022976;28;20206;-80
2023/02/18 07:19:15;;;;;;;0.10;0.10;;;11.20;99.90;;;;;;5027464;28;20183;-80
2023/02/18 07:21:40;;;;;;;0.10;0.10;;;11.20;99.90;;;;;;5025782;28;20612;-79
2023/02/18 07:24:06;;;;;;;0.10;0.10;;;11.20;99.90;;;;;;5024234;28;21134;-79
2023/02/18 07:26:31;;;;;;;0.10;0.10;;;11.20;99.90;;;;;;5026275;28;20593;-79
2023/02/18 07:28:57;;;;;;;0.10;0.10;;;11.20;99.90;;;;;;5023621;28;20457;-80
2023/02/18 07:31:22;;;;;;;0.03;0.03;;;11.20;99.90;;;;;;5025593;28;20181;-80
2023/02/18 07:33:48;;;;;;;0.10;0.10;;;11.20;99.90;;;;;;5026132;28;20217;-79
2023/02/18 07:36:13;;;;;;;0.10;0.10;;;11.20;99.90;;;;;;5026364;28;20248;-80
2023/02/18 07:38:39;;;;;;;0.10;0.10;;;11.10;99.90;;;;;;5026934;28;20190;-79
2023/02/18 07:41:05;;;;;;;0.10;0.10;;;11.20;99.90;;;;;;5025505;28;20266;-81
2023/02/18 07:43:30;;;;;;;0.10;0.10;;;11.10;99.90;;;;;;5026472;28;20210;-79
2023/02/18 07:45:56;;;;;;;0.03;0.03;;;11.20;99.90;;;;;;5025911;28;20277;-80
2023/02/18 07:48:21;;;;;;;0.00;0.00;;;11.20;99.90;;;;;;5027993;28;20570;-80
2023/02/18 07:50:47;;;;;;;0.10;0.10;;;11.20;99.90;;;;;;5023724;28;20631;-79
2023/02/18 07:53:14;;;;;;;0.10;0.10;;;11.30;99.90;;;;;;5026547;28;20214;-79
2023/02/18 07:55:49;;;;;;;0.10;0.10;;;11.30;99.90;;;;;;5027061;28;20190;-79
2023/02/18 07:58:26;;;;;;;0.10;0.10;;;11.30;99.90;;;;;;5026939;28;20453;-81
2023/02/18 08:00:53;;;;;;;0.10;0.10;;;11.30;99.90;;;;;;5027570;28;20206;-79
2023/02/18 08:03:30;;;;;;;0.00;0.00;;;11.40;99.90;;;;;;5025629;28;20746;-80
2023/02/18 08:05:56;;;;;;;0.10;0.10;;;11.40;99.90;;;;;;5025283;28;20186;-79
2023/02/18 08:08:24;;;;;;;0.10;0.10;;;11.40;99.90;;;;;;5024720;28;20659;-80
2023/02/18 08:10:52;;;;;;;0.10;0.10;;;11.40;99.90;;;;;;5024663;28;20340;-80
2023/02/18 08:13:17;;;;;;;0.10;0.10;;;11.50;99.90;;;;;;5025485;28;20210;-79
2023/02/18 08:15:43;;;;;;;0.10;0.10;;;11.50;99.90;;;;;;5023214;28;20699;-79
2023/02/18 08:18:18;;;;;;;0.10;0.10;;;11.50;99.90;;;;;;5027282;28;20228;-80
2023/02/18 08:20:46;;;;;;;0.10;0.10;;;11.50;99.90;;;;;;5025427;28;20185;-80
2023/02/18 08:23:12;;;;;;;0.10;0.10;;;11.60;99.90;;;;;;5025044;28;20248;-79
2023/02/18 08:25:37;;;;;;;0.10;0.10;;;11.60;99.90;;;;;;5025888;28;20652;-79
2023/02/18 08:28:03;;;;;;;0.10;0.10;;;11.60;99.90;;;;;;5026014;28;20212;-80
2023/02/18 08:30:29;;;;;;;0.10;0.10;;;11.60;99.90;;;;;;5024847;28;20186;-80
2023/02/18 08:32:54;;;;;;;0.10;0.10;;;11.60;99.90;;;;;;5026968;28;20361;-79
2023/02/18 08:35:20;;;;;;;0.10;0.10;;;11.60;99.90;;;;;;5024055;28;20264;-80
2023/02/18 08:37:46;;;;;;;0.10;0.10;;;11.60;99.90;;;;;;5025520;28;20197;-80
2023/02/18 08:40:12;;;;;;;0.03;0.03;;;11.60;99.90;;;;;;5026563;28;20197;-79
2023/02/18 08:42:38;;;;;;;0.10;0.10;;;11.60;99.90;;;;;;5019570;28;20233;-79
2023/02/18 08:45:05;;;;;;;0.10;0.10;;;11.70;99.90;;;;;;5025796;28;20197;-79
2023/02/18 08:47:30;;;;;;;0.00;0.00;;;11.70;99.90;;;;;;5024205;28;20201;-80
2023/02/18 08:49:56;;;;;;;0.10;0.10;;;11.80;99.90;;;;;;5025324;28;20193;-80
2023/02/18 08:52:22;;;;;;;0.10;0.10;;;11.70;99.90;;;;;;5025593;28;20214;-80
2023/02/18 08:54:47;;;;;;;0.10;0.10;;;11.80;99.90;;;;;;5021829;28;20653;-79
2023/02/18 08:57:13;;;;;;;0.10;0.10;;;11.90;99.90;;;;;;5023190;28;20182;-80
2023/02/18 08:59:39;;;;;;;0.10;0.10;;;11.90;99.90;;;;;;5024876;28;20190;-80
2023/02/18 09:02:05;;;;;;;0.10;0.10;;;11.90;99.90;;;;;;5025410;28;20185;-79
2023/02/18 09:04:31;;;;;;;0.10;0.10;;;11.90;99.90;;;;;;5024807;28;20269;-79
2023/02/18 09:06:56;;;;;;;0.07;0.07;;;12.00;99.90;;;;;;5025819;28;20217;-80
2023/02/18 09:09:22;;;;;;;0.00;0.00;;;12.00;99.90;;;;;;5022609;28;20263;-79
2023/02/18 09:11:48;;;;;;;0.03;0.03;;;12.10;99.90;;;;;;5021291;28;20209;-81
2023/02/18 09:14:14;;;;;;;0.10;0.10;;;12.20;99.90;;;;;;5024581;28;20182;-79
2023/02/18 09:16:40;;;;;;;0.10;0.10;;;12.10;99.90;;;;;;5024396;28;20191;-80
2023/02/18 09:19:06;;;;;;;0.10;0.10;;;12.20;99.90;;;;;;5026306;28;20454;-79
2023/02/18 09:21:32;;;;;;;0.10;0.10;;;12.10;99.90;;;;;;5023659;28;20186;-80
2023/02/18 09:23:58;;;;;;;0.10;0.10;;;12.10;99.90;;;;;;5025918;28;20221;-79
2023/02/18 09:26:26;;;;;;;0.03;0.03;;;12.10;99.90;;;;;;5024458;28;20185;-79
2023/02/18 09:28:53;;;;;;;0.10;0.10;;;12.00;99.90;;;;;;5023181;28;21191;-80
2023/02/18 09:31:21;;;;;;;0.53;0.53;;;12.00;99.90;;;;;;5024437;28;20272;-79
2023/02/18 09:33:49;;;;;;;0.10;0.10;;;12.00;99.90;;;;;;5023593;28;20200;-80
2023/02/18 09:36:16;;;;;;;0.10;0.10;;;12.00;99.90;;;;;;5024361;28;20178;-79
2023/02/18 09:38:41;;;;;;;0.10;0.10;;;12.00;99.90;;;;;;5024289;28;20224;-80
2023/02/18 09:41:30;;;;;;;0.10;0.10;;;12.00;99.90;;;;;;5022212;28;20206;-80
2023/02/18 09:44:00;;;;;;;0.10;0.10;;;12.10;99.90;;;;;;5023424;28;20555;-79
2023/02/18 09:46:35;;;;;;;0.10;0.10;;;12.10;99.90;;;;;;5020815;28;20189;-79
2023/02/18 09:49:13;;;;;;;0.10;0.10;;;12.10;99.90;;;;;;5023646;28;20264;-80
2023/02/18 09:51:38;;;;;;;0.10;0.10;;;12.10;99.90;;;;;;5024191;28;20229;-79
2023/02/18 09:54:04;;;;;;;0.10;0.10;;;12.00;99.90;;;;;;5021719;28;20201;-80
2023/02/18 09:56:34;;;;;;;0.10;0.10;;;11.90;99.90;;;;;;5025521;28;20202;-79
2023/02/18 09:59:04;;;;;;;0.00;0.00;;;12.00;99.90;;;;;;5024202;28;20182;-79
2023/02/18 10:01:34;;;;;;;0.10;0.10;;;12.00;99.90;;;;;;5025334;28;20297;-79
2023/02/18 10:04:05;;;;;;;0.10;0.10;;;12.10;99.90;;;;;;5025294;28;20213;-79
2023/02/18 10:06:34;;;;;;;0.10;0.10;;;12.10;99.90;;;;;;5023656;28;20473;-79
2023/02/18 10:09:04;;;;;;;0.10;0.10;;;12.10;99.90;;;;;;5022634;28;20191;-79
2023/02/18 10:11:42;;;;;;;0.10;0.10;;;12.20;99.90;;;;;;5018840;28;20193;-80
2023/02/18 10:14:13;;;;;;;0.10;0.10;;;12.10;99.90;;;;;;5025272;28;20244;-79
2023/02/18 10:16:39;;;;;;;0.10;0.10;;;12.10;99.90;;;;;;5027407;28;20210;-79
2023/02/18 10:19:22;;;;;;;0.10;0.10;;;12.10;99.90;;;;;;5029622;28;20595;-78
2023/02/18 10:21:48;;;;;;;17.30;13.47;;;12.20;99.90;;;;;;5032093;28;20641;-80
2023/02/18 10:24:27;;;;;;;0.10;0.10;;;12.20;99.90;;;;;;5030566;28;20204;-79
2023/02/18 10:26:54;;;;;;;0.10;0.10;;;12.10;99.90;;;;;;5029696;28;20182;-79
2023/02/18 10:29:21;;;;;;;0.10;0.10;;;12.10;99.90;;;;;;5031702;28;20186;-80
2023/02/18 10:32:04;;;;;;;0.10;0.10;;;12.20;99.90;;;;;;5028742;28;20210;-80
2023/02/18 10:34:40;;;;;;;0.10;0.10;;;12.10;99.90;;;;;;5029729;28;20185;-79
2023/02/18 10:37:40;;;;;;;0.10;0.10;;;12.10;99.90;;;;;;5029771;28;20192;-80
2023/02/18 10:40:13;;;;;;;0.10;0.10;;;12.20;99.90;;;;;;5029647;28;20182;-80
2023/02/18 10:42:53;;;;;;;0.10;0.10;;;12.30;99.90;;;;;;5029704;28;20210;-80
2023/02/18 10:45:50;;;;;;;0.10;0.10;;;12.40;99.90;;;;;;5031105;28;20186;-80
2023/02/18 10:48:41;;;;;;;0.10;0.10;;;12.40;99.90;;;;;;5026799;28;20608;-79
2023/02/18 10:51:23;;;;;;;0.10;0.10;;;12.50;99.90;;;;;;5029453;28;20191;-79
2023/02/18 10:53:51;;;;;;;0.10;0.10;;;12.40;99.90;;;;;;5032385;28;20206;-79
2023/02/18 10:56:46;;;;;;;0.10;0.10;;;12.30;99.90;;;;;;5030953;28;20232;-79
2023/02/18 10:59:31;;;;;;;0.10;0.10;;;12.20;99.90;;;;;;5032296;28;20496;-80
2023/02/18 11:02:01;;;;;;;0.10;0.10;;;12.20;99.90;;;;;;5030216;28;20205;-79
2023/02/18 11:04:39;;;;;;;0.10;0.10;;;12.20;99.90;;;;;;5031671;28;20189;-79
2023/02/18 11:07:17;;;;;;;0.10;0.10;;;12.30;99.90;;;;;;5030658;28;20190;-79
2023/02/18 11:09:49;;;;;;;0.10;0.10;;;12.40;99.90;;;;;;5030482;28;20191;-79
2023/02/18 11:12:20;;;;;;;0.10;0.10;;;12.50;99.90;;;;;;5032985;28;20214;-79
2023/02/18 11:14:50;;;;;;;0.10;0.10;;;12.40;99.90;;;;;;5030345;28;20279;-78
2023/02/18 11:17:26;;;;;;;0.10;0.10;;;12.40;99.90;;;;;;5030043;28;20189;-79
2023/02/18 11:19:57;;;;;;;0.10;0.10;;;12.40;99.90;;;;;;5030262;28;20190;-79
2023/02/18 11:22:38;;;;;;;0.10;0.10;;;12.50;99.90;;;;;;5031534;28;20285;-80
2023/02/18 11:25:22;;;;;;;0.10;0.10;;;12.50;99.90;;;;;;5029995;28;20202;-80
2023/02/18 11:27:55;;;;;;;0.10;0.10;;;12.50;99.90;;;;;;5025170;28;20191;-79
2023/02/18 11:30:22;;;;;;;0.10;0.10;;;12.40;99.90;;;;;;5019957;28;20197;-79
2023/02/18 11:32:51;;;;;;;0.10;0.10;;;12.40;99.90;;;;;;5026451;28;20214;-78
2023/02/18 11:35:20;;;;;;;0.10;0.10;;;12.40;99.90;;;;;;5028030;28;20185;-79
2023/02/18 11:37:46;;;;;;;0.10;0.10;;;12.30;99.90;;;;;;5025847;28;20190;-79
2023/02/18 11:40:27;;;;;;;0.10;0.10;;;12.30;99.90;;;;;;5026546;28;20616;-80
2023/02/18 11:43:03;;;;;;;0.10;0.10;;;12.20;99.90;;;;;;5024765;28;20209;-81
2023/02/18 11:45:30;;;;;;;0.10;0.10;;;12.20;99.90;;;;;;5027489;28;20658;-79
2023/02/18 11:48:22;;;;;;;0.10;0.10;;;12.20;99.90;;;;;;5026757;28;20209;-79
2023/02/18 11:50:52;;;;;;;0.10;0.10;;;12.20;99.90;;;;;;5026710;28;20546;-80
2023/02/18 11:53:35;;;;;;;0.07;0.07;;;12.20;99.90;;;;;;5026106;28;20220;-80
2023/02/18 11:56:05;;;;;;;0.10;0.10;;;12.20;99.90;;;;;;5027762;28;20186;-79
2023/02/18 11:58:38;;;;;;;0.10;0.10;;;12.20;99.90;;;;;;5027125;28;20558;-79
2023/02/18 12:01:11;;;;;;;0.10;0.10;;;12.20;99.90;;;;;;5027969;28;20222;-80
2023/02/18 12:03:47;;;;;;;0.10;0.10;;;12.20;99.90;;;;;;5027344;28;20248;-80
2023/02/18 12:06:33;;;;;;;0.10;0.10;;;12.30;99.90;;;;;;5027804;28;20681;-80
2023/02/18 12:09:17;;;;;;;0.10;0.10;;;12.30;99.90;;;;;;5026020;28;20190;-80
2023/02/18 12:11:48;;;;;;;0.10;0.10;;;12.40;99.90;;;;;;5025959;28;20206;-79
2023/02/18 12:14:18;;;;;;;0.10;0.10;;;12.30;99.90;;;;;;5026172;28;20199;-79
2023/02/18 12:16:46;;;;;;;0.10;0.10;;;12.40;99.90;;;;;;5022552;28;20539;-79
2023/02/18 12:19:37;;;;;;;0.10;0.10;;;12.50;99.90;;;;;;5019560;28;20211;-79
2023/02/18 12:22:20;;;;;;;0.10;0.10;;;12.50;99.90;;;;;;5024880;28;20672;-79
2023/02/18 12:25:07;;;;;;;0.10;0.10;;;12.60;99.90;;;;;;5043007;28;20186;-80
2023/02/18 12:27:49;;;;;;;0.10;0.10;;;12.60;99.90;;;;;;5023356;28;20187;-79
2023/02/18 12:30:43;;;;;;;0.10;0.10;;;12.50;99.90;;;;;;5022903;28;20183;-80
2023/02/18 12:33:30;;;;;;;4.07;3.90;;;12.60;99.90;;;;;;5025393;28;20296;-81
2023/02/18 12:35:59;;;;;;;0.10;0.10;;;12.50;99.90;;;;;;5025465;28;20931;-80
2023/02/18 12:38:48;;;;;;;0.10;0.10;;;12.50;99.90;;;;;;5026197;28;20233;-79
2023/02/18 12:41:30;;;;;;;0.10;0.10;;;12.50;99.90;;;;;;5025110;28;20192;-79
2023/02/18 12:44:21;;;;;;;0.10;0.10;;;12.40;99.90;;;;;;5025008;28;20206;-80
2023/02/18 12:46:46;;;;;;;0.10;0.10;;;12.40;99.90;;;;;;5026878;28;20481;-79
2023/02/18 12:49:57;;;;;;;0.10;0.10;;;12.30;99.90;;;;;;5023306;28;20672;-79
2023/02/18 12:52:34;;;;;;;0.00;0.00;;;12.40;99.90;;;;;;5024883;28;20214;-80
2023/02/18 12:55:22;;;;;;;0.10;0.10;;;12.40;99.90;;;;;;5026728;28;20182;-80
2023/02/18 12:57:59;;;;;;;0.10;0.10;;;12.40;99.90;;;;;;5024664;28;20178;-79
2023/02/18 13:00:49;;;;;;;0.10;0.10;;;12.40;99.90;;;;;;5024758;28;20194;-80
2023/02/18 13:03:55;;;;;;;0.10;0.10;;;12.50;99.90;;;;;;5026067;28;20221;-80
2023/02/18 13:06:32;;;;;;;0.10;0.10;;;12.50;99.90;;;;;;5024815;28;20205;-80